Escanaba, MI

12:49 PM EDT on June 29, 2017 (GMT -0400)
Delta County

Weather History for KESC - March, 2015

Change the Weather History Date:

Monday, March 9, 2015

  Actual Average Record
Temperature  
Mean Temperature 30 °F -  
Max Temperature 42 °F 34 °F 58 °F (1977)
Min Temperature 19 °F 16 °F -11 °F (1972)
Degree Days  
Heating Degree Days 35    
Moisture  
Dew Point 25 °F    
Average Humidity 74    
Maximum Humidity 86    
Minimum Humidity 57    
Precipitation  
Precipitation 0.00 in - - ()
Sea Level Pressure  
Sea Level Pressure 29.99 in    
Wind  
Wind Speed 5 mph (SW)    
Max Wind Speed 16 mph    
Max Gust Speed 22 mph    
Visibility 10 miles    
Events      
Averages and records for this station are not official NWS values.
T = Trace of Precipitation, MM = Missing Value Source: NWS Daily Summary

Daily Weather History Graph

Daily Weather History Graph

Search for Another Location

Airport or City:

Trip Planner

Search our weather history database for the weather conditions in past years. The results will help you decide how hot, cold, wet, or windy it might be!

Date:

Astronomy

Mar. 09, 2015 Rise Set
Actual Time 8:12 AM EDT 7:45 PM EDT
Civil Twilight 7:43 AM EDT 8:15 PM EDT
Nautical Twilight 7:08 AM EDT 8:50 PM EDT
Astronomical Twilight 6:33 AM EDT 9:24 PM EDT
Moon 11:51 PM EDT (3/9) 9:54 AM EDT (3/9)
Length of Visible Light 12h 32m
Length of Day
11h 33m
Waning Gibbous, 87% of the Moon is Illuminated
Mar 9
Waning Gibbous
Mar 13
Last Quarter
Mar 20
New
Mar 27
First Quarter
Apr 4
Full

Hourly Weather History & Observations

Time (EDT) Temp. Windchill Dew Point Humidity Pressure Visibility Wind Dir Wind Speed Gust Speed Precip Events Conditions
12:15 AM 24.8 °F - 19.4 °F 80% 30.01 in 10.0 mi Calm Calm - N/A   Clear
12:35 AM 24.8 °F - 19.4 °F 80% 30.01 in 10.0 mi Calm Calm - N/A   Clear
12:55 AM 23.0 °F - 17.6 °F 80% 30.01 in 10.0 mi Calm Calm - N/A   Clear
1:15 AM 23.0 °F - 17.6 °F 80% 30.01 in 10.0 mi Calm Calm - N/A   Clear
1:35 AM 23.0 °F 18.4 °F 17.6 °F 80% 30.01 in 10.0 mi WSW 3.5 mph - N/A   Clear
1:55 AM 24.8 °F - 19.4 °F 80% 30.01 in 10.0 mi Calm Calm - N/A   Clear
2:15 AM 19.4 °F - 15.8 °F 86% 30.01 in 10.0 mi Calm Calm - N/A   Clear
2:35 AM 23.0 °F 18.4 °F 17.6 °F 80% 30.01 in 10.0 mi WSW 3.5 mph - N/A   Clear
2:55 AM 21.2 °F - 17.6 °F 86% 30.01 in 10.0 mi Calm Calm - N/A   Clear
3:15 AM 21.2 °F 13.6 °F 17.6 °F 86% 30.01 in 10.0 mi WSW 5.8 mph - N/A   Clear
3:35 AM 21.2 °F 13.6 °F 15.8 °F 80% 30.01 in 10.0 mi West 5.8 mph - N/A   Clear
3:55 AM 24.8 °F 17.9 °F 19.4 °F 80% 30.01 in 10.0 mi WSW 5.8 mph - N/A   Clear
4:15 AM 24.8 °F 17.9 °F 19.4 °F 80% 30.01 in 10.0 mi West 5.8 mph - N/A   Clear
4:35 AM 24.8 °F 17.9 °F 19.4 °F 80% 30.00 in 10.0 mi West 5.8 mph - N/A   Clear
4:55 AM 24.8 °F 17.9 °F 19.4 °F 80% 29.99 in 10.0 mi West 5.8 mph - N/A   Clear
5:15 AM 24.8 °F 17.9 °F 19.4 °F 80% 29.99 in 10.0 mi West 5.8 mph - N/A   Clear
5:35 AM 24.8 °F 16.9 °F 19.4 °F 80% 29.99 in 10.0 mi West 6.9 mph - N/A   Clear
5:55 AM 26.6 °F 20.0 °F 19.4 °F 74% 30.00 in 10.0 mi West 5.8 mph - N/A   Clear
6:15 AM 26.6 °F 21.2 °F 19.4 °F 74% 30.00 in 10.0 mi West 4.6 mph - N/A   Clear
6:35 AM 26.6 °F 20.0 °F 19.4 °F 74% 30.00 in 10.0 mi WSW 5.8 mph - N/A   Clear
6:55 AM 26.6 °F 20.0 °F 19.4 °F 74% 30.01 in 10.0 mi WSW 5.8 mph - N/A   Clear
7:15 AM 26.6 °F 20.0 °F 19.4 °F 74% 30.01 in 10.0 mi WSW 5.8 mph - N/A   Clear
7:35 AM 24.8 °F 19.1 °F 17.6 °F 74% 30.01 in 10.0 mi WSW 4.6 mph - N/A   Clear
7:55 AM 24.8 °F 17.9 °F 19.4 °F 80% 30.01 in 10.0 mi West 5.8 mph - N/A   Clear
8:15 AM 24.8 °F 20.5 °F 19.4 °F 80% 30.02 in 10.0 mi WSW 3.5 mph - N/A   Clear
8:35 AM 24.8 °F 20.5 °F 21.2 °F 86% 30.03 in 10.0 mi West 3.5 mph - N/A   Clear
8:55 AM 24.8 °F 19.1 °F 19.4 °F 80% 30.03 in 10.0 mi West 4.6 mph - N/A   Clear
9:15 AM 26.6 °F 20.0 °F 21.2 °F 80% 30.03 in 10.0 mi West 5.8 mph - N/A   Clear
9:35 AM 26.6 °F 18.2 °F 19.4 °F 74% 30.04 in 10.0 mi WSW 8.1 mph - N/A   Clear
9:55 AM 28.4 °F 21.2 °F 19.4 °F 69% 30.04 in 10.0 mi West 6.9 mph - N/A   Clear
10:15 AM 30.2 °F 21.9 °F 21.2 °F 69% 30.04 in 10.0 mi West 9.2 mph - N/A   Clear
10:35 AM 33.8 °F 25.8 °F 24.8 °F 70% 30.04 in 10.0 mi West 10.4 mph - N/A   Mostly Cloudy
10:55 AM 35.6 °F 28.6 °F 24.8 °F 65% 30.04 in 10.0 mi West 9.2 mph - N/A   Overcast
11:15 AM 37.4 °F 33.8 °F 24.8 °F 60% 30.05 in 10.0 mi SE 4.6 mph - N/A   Overcast
11:35 AM 35.6 °F - 24.8 °F 65% 30.04 in 10.0 mi Calm Calm - N/A   Overcast
11:55 AM 35.6 °F 29.2 °F 26.6 °F 70% 30.04 in 10.0 mi SSE 8.1 mph - N/A   Overcast
12:15 PM 35.6 °F 29.9 °F 26.6 °F 70% 30.04 in 10.0 mi South 6.9 mph - N/A   Overcast
12:35 PM 37.4 °F 32.1 °F 26.6 °F 65% 30.05 in 10.0 mi South 6.9 mph - N/A   Overcast
12:55 PM 39.2 °F 33.0 °F 26.6 °F 61% 30.05 in 10.0 mi South 9.2 mph - N/A   Overcast
1:15 PM 41.0 °F 38.0 °F 26.6 °F 57% 30.05 in 10.0 mi SSW 4.6 mph - N/A   Overcast
1:55 PM 41.0 °F 38.0 °F 26.6 °F 57% 30.04 in 10.0 mi South 4.6 mph - N/A   Partly Cloudy
2:15 PM 39.2 °F 32.0 °F 28.4 °F 65% 30.03 in 10.0 mi South 11.5 mph - N/A   Clear
2:35 PM 39.2 °F 33.0 °F 28.4 °F 65% 30.02 in 10.0 mi South 9.2 mph - N/A   Clear
2:55 PM 37.4 °F 28.5 °F 28.4 °F 70% 30.01 in 10.0 mi South 15.0 mph 19.6 mph N/A   Mostly Cloudy
3:15 PM 39.2 °F 32.0 °F 28.4 °F 65% 30.00 in 10.0 mi South 11.5 mph 19.6 mph N/A   Overcast
3:35 PM 39.2 °F 31.6 °F 28.4 °F 65% 29.99 in 10.0 mi SSW 12.7 mph 18.4 mph N/A   Overcast
3:55 PM 39.2 °F 31.6 °F 28.4 °F 65% 29.99 in 10.0 mi SSW 12.7 mph 18.4 mph N/A   Mostly Cloudy
4:15 PM 39.2 °F 30.5 °F 28.4 °F 65% 29.97 in 10.0 mi South 16.1 mph 20.7 mph N/A   Overcast
4:35 PM 41.0 °F 33.1 °F 28.4 °F 61% 29.96 in 10.0 mi SSW 15.0 mph 19.6 mph N/A   Overcast
4:55 PM 41.0 °F 33.9 °F 30.2 °F 65% 29.95 in 10.0 mi South 12.7 mph 21.9 mph N/A   Overcast
5:15 PM 39.2 °F 30.8 °F 30.2 °F 70% 29.95 in 10.0 mi SSW 15.0 mph 19.6 mph N/A   Overcast
5:35 PM 37.4 °F 29.8 °F 30.2 °F 75% 29.94 in 10.0 mi South 11.5 mph - N/A   Overcast
5:55 PM 39.2 °F 32.0 °F 30.2 °F 70% 29.93 in 10.0 mi South 11.5 mph 17.3 mph N/A   Overcast
6:15 PM 39.2 °F 31.2 °F 32.0 °F 75% 29.92 in 10.0 mi South 13.8 mph 19.6 mph N/A   Mostly Cloudy
6:35 PM 39.2 °F 32.0 °F 30.2 °F 70% 29.91 in 10.0 mi South 11.5 mph 17.3 mph N/A   Partly Cloudy
6:55 PM 37.4 °F 29.3 °F 30.2 °F 75% 29.91 in 10.0 mi South 12.7 mph - N/A   Clear
7:15 PM 37.4 °F 29.8 °F 30.2 °F 75% 29.91 in 10.0 mi SSW 11.5 mph 20.7 mph N/A   Clear
7:35 PM 37.4 °F 29.3 °F 30.2 °F 75% 29.90 in 10.0 mi SSW 12.7 mph 19.6 mph N/A   Partly Cloudy
7:55 PM 37.4 °F 29.8 °F 30.2 °F 75% 29.90 in 10.0 mi SSW 11.5 mph 19.6 mph N/A   Mostly Cloudy
8:15 PM 37.4 °F 29.8 °F 30.2 °F 75% 29.90 in 10.0 mi SSW 11.5 mph 17.3 mph N/A   Overcast
8:35 PM 37.4 °F 30.8 °F 32.0 °F 81% 29.91 in 10.0 mi SSW 9.2 mph - N/A   Overcast
8:55 PM 37.4 °F 30.3 °F 32.0 °F 81% 29.91 in 10.0 mi SSW 10.4 mph - N/A   Scattered Clouds
9:15 PM 37.4 °F 29.8 °F 30.2 °F 75% 29.91 in 10.0 mi SSW 11.5 mph 17.3 mph N/A   Clear
9:35 PM 37.4 °F 30.3 °F 30.2 °F 75% 29.92 in 10.0 mi SSW 10.4 mph - N/A   Partly Cloudy
9:55 PM 37.4 °F 31.4 °F 30.2 °F 75% 29.92 in 10.0 mi SSW 8.1 mph - N/A   Mostly Cloudy
10:15 PM 37.4 °F 32.1 °F 30.2 °F 75% 29.93 in 10.0 mi SSW 6.9 mph - N/A   Mostly Cloudy
10:35 PM 37.4 °F 32.1 °F 30.2 °F 75% 29.93 in 10.0 mi SSW 6.9 mph - N/A   Mostly Cloudy
10:55 PM 37.4 °F 33.8 °F 30.2 °F 75% 29.93 in 10.0 mi SSW 4.6 mph - N/A   Overcast
11:15 PM 37.4 °F 32.8 °F 30.2 °F 75% 29.93 in 10.0 mi SW 5.8 mph - N/A   Overcast
11:35 PM 37.4 °F 33.8 °F 30.2 °F 75% 29.94 in 10.0 mi SSW 4.6 mph - N/A   Overcast
11:55 PM 37.4 °F 32.8 °F 30.2 °F 75% 29.94 in 10.0 mi SSW 5.8 mph - N/A   Overcast